sensor_id;sensor_type;location;lat;lon;timestamp;P1;durP1;ratioP1;P2;durP2;ratioP2
52512;SDS011;38422;53.172;6.974;2023-02-01T00:02:17;20.17;;;3.47;;
52512;SDS011;38422;53.172;6.974;2023-02-01T00:04:42;15.77;;;3.33;;
52512;SDS011;38422;53.172;6.974;2023-02-01T00:07:08;17.90;;;3.17;;
52512;SDS011;38422;53.172;6.974;2023-02-01T00:09:34;18.67;;;3.10;;
52512;SDS011;38422;53.172;6.974;2023-02-01T00:11:59;16.52;;;3.35;;
52512;SDS011;38422;53.172;6.974;2023-02-01T00:14:27;22.60;;;3.50;;
52512;SDS011;38422;53.172;6.974;2023-02-01T00:16:53;21.20;;;3.50;;
52512;SDS011;38422;53.172;6.974;2023-02-01T00:19:19;20.65;;;4.15;;
52512;SDS011;38422;53.172;6.974;2023-02-01T00:21:45;19.90;;;3.28;;
52512;SDS011;38422;53.172;6.974;2023-02-01T00:24:11;19.90;;;3.30;;
52512;SDS011;38422;53.172;6.974;2023-02-01T00:26:37;18.13;;;3.53;;
52512;SDS011;38422;53.172;6.974;2023-02-01T00:29:15;15.90;;;2.70;;
52512;SDS011;38422;53.172;6.974;2023-02-01T00:31:42;17.42;;;3.38;;
52512;SDS011;38422;53.172;6.974;2023-02-01T00:34:13;21.38;;;3.33;;
52512;SDS011;38422;53.172;6.974;2023-02-01T00:36:40;19.90;;;3.90;;
52512;SDS011;38422;53.172;6.974;2023-02-01T00:39:07;20.65;;;3.30;;
52512;SDS011;38422;53.172;6.974;2023-02-01T00:41:33;20.40;;;3.58;;
52512;SDS011;38422;53.172;6.974;2023-02-01T00:43:59;19.83;;;3.40;;
52512;SDS011;38422;53.172;6.974;2023-02-01T00:46:26;17.95;;;3.05;;
52512;SDS011;38422;53.172;6.974;2023-02-01T00:48:52;15.43;;;2.83;;
52512;SDS011;38422;53.172;6.974;2023-02-01T00:51:20;20.35;;;3.50;;
52512;SDS011;38422;53.172;6.974;2023-02-01T00:53:47;19.27;;;3.40;;
52512;SDS011;38422;53.172;6.974;2023-02-01T00:56:13;16.38;;;2.75;;
52512;SDS011;38422;53.172;6.974;2023-02-01T00:58:39;16.52;;;3.00;;
52512;SDS011;38422;53.172;6.974;2023-02-01T01:03:54;18.73;;;3.03;;
52512;SDS011;38422;53.172;6.974;2023-02-01T01:06:22;13.57;;;2.45;;
52512;SDS011;38422;53.172;6.974;2023-02-01T01:08:52;13.85;;;2.60;;
52512;SDS011;38422;53.172;6.974;2023-02-01T01:11:20;15.65;;;2.90;;
52512;SDS011;38422;53.172;6.974;2023-02-01T01:13:48;15.18;;;2.70;;
52512;SDS011;38422;53.172;6.974;2023-02-01T01:16:15;16.45;;;2.78;;
52512;SDS011;38422;53.172;6.974;2023-02-01T01:18:41;20.52;;;4.00;;
52512;SDS011;38422;53.172;6.974;2023-02-01T01:21:08;16.63;;;2.80;;
52512;SDS011;38422;53.172;6.974;2023-02-01T01:23:34;18.10;;;3.35;;
52512;SDS011;38422;53.172;6.974;2023-02-01T01:26:00;13.27;;;3.03;;
52512;SDS011;38422;53.172;6.974;2023-02-01T01:28:30;20.50;;;2.97;;
52512;SDS011;38422;53.172;6.974;2023-02-01T01:30:56;20.08;;;3.38;;
52512;SDS011;38422;53.172;6.974;2023-02-01T01:33:22;19.20;;;2.75;;
52512;SDS011;38422;53.172;6.974;2023-02-01T01:35:47;19.63;;;3.00;;
52512;SDS011;38422;53.172;6.974;2023-02-01T01:38:13;19.02;;;3.38;;
52512;SDS011;38422;53.172;6.974;2023-02-01T01:40:39;18.33;;;3.40;;
52512;SDS011;38422;53.172;6.974;2023-02-01T01:43:14;21.75;;;3.33;;
52512;SDS011;38422;53.172;6.974;2023-02-01T01:45:41;17.23;;;2.85;;
52512;SDS011;38422;53.172;6.974;2023-02-01T01:50:40;17.50;;;2.65;;
52512;SDS011;38422;53.172;6.974;2023-02-01T01:53:18;15.05;;;2.88;;
52512;SDS011;38422;53.172;6.974;2023-02-01T01:55:48;20.02;;;3.60;;
52512;SDS011;38422;53.172;6.974;2023-02-01T02:00:48;18.88;;;3.08;;
52512;SDS011;38422;53.172;6.974;2023-02-01T02:03:15;16.65;;;2.65;;
52512;SDS011;38422;53.172;6.974;2023-02-01T02:05:46;17.95;;;3.00;;
52512;SDS011;38422;53.172;6.974;2023-02-01T02:08:14;17.85;;;3.17;;
52512;SDS011;38422;53.172;6.974;2023-02-01T02:10:40;16.17;;;2.90;;
52512;SDS011;38422;53.172;6.974;2023-02-01T02:13:24;16.08;;;3.22;;
52512;SDS011;38422;53.172;6.974;2023-02-01T02:16:12;17.75;;;3.30;;
52512;SDS011;38422;53.172;6.974;2023-02-01T02:26:56;19.63;;;3.70;;
52512;SDS011;38422;53.172;6.974;2023-02-01T02:35:36;19.08;;;3.28;;
52512;SDS011;38422;53.172;6.974;2023-02-01T02:38:52;16.08;;;2.92;;
52512;SDS011;38422;53.172;6.974;2023-02-01T02:44:08;18.23;;;3.25;;
52512;SDS011;38422;53.172;6.974;2023-02-01T02:47:03;18.55;;;3.08;;
52512;SDS011;38422;53.172;6.974;2023-02-01T02:52:51;17.52;;;3.13;;
52512;SDS011;38422;53.172;6.974;2023-02-01T02:55:41;13.82;;;2.42;;
52512;SDS011;38422;53.172;6.974;2023-02-01T02:58:08;15.82;;;3.38;;
52512;SDS011;38422;53.172;6.974;2023-02-01T03:00:56;19.65;;;3.42;;
52512;SDS011;38422;53.172;6.974;2023-02-01T03:03:40;18.25;;;2.85;;
52512;SDS011;38422;53.172;6.974;2023-02-01T03:06:26;16.52;;;3.22;;
52512;SDS011;38422;53.172;6.974;2023-02-01T03:08:53;14.30;;;3.10;;
52512;SDS011;38422;53.172;6.974;2023-02-01T03:11:22;17.20;;;3.20;;
52512;SDS011;38422;53.172;6.974;2023-02-01T03:14:09;18.83;;;3.28;;
52512;SDS011;38422;53.172;6.974;2023-02-01T03:16:41;18.05;;;3.40;;
52512;SDS011;38422;53.172;6.974;2023-02-01T03:19:21;23.05;;;3.50;;
52512;SDS011;38422;53.172;6.974;2023-02-01T03:21:52;16.85;;;3.03;;
52512;SDS011;38422;53.172;6.974;2023-02-01T03:24:26;13.60;;;2.83;;
52512;SDS011;38422;53.172;6.974;2023-02-01T03:27:08;16.65;;;3.03;;
52512;SDS011;38422;53.172;6.974;2023-02-01T03:29:38;17.10;;;2.97;;
52512;SDS011;38422;53.172;6.974;2023-02-01T03:32:11;16.10;;;3.20;;
52512;SDS011;38422;53.172;6.974;2023-02-01T03:34:38;20.27;;;3.20;;
52512;SDS011;38422;53.172;6.974;2023-02-01T03:37:05;21.58;;;3.42;;
52512;SDS011;38422;53.172;6.974;2023-02-01T03:39:35;9.77;;;2.50;;
52512;SDS011;38422;53.172;6.974;2023-02-01T03:42:14;14.77;;;3.13;;
52512;SDS011;38422;53.172;6.974;2023-02-01T03:49:43;13.52;;;3.05;;
52512;SDS011;38422;53.172;6.974;2023-02-01T03:52:16;17.65;;;2.70;;
52512;SDS011;38422;53.172;6.974;2023-02-01T03:54:48;14.95;;;3.15;;
52512;SDS011;38422;53.172;6.974;2023-02-01T03:57:16;16.35;;;3.13;;
52512;SDS011;38422;53.172;6.974;2023-02-01T03:59:51;16.95;;;3.10;;
52512;SDS011;38422;53.172;6.974;2023-02-01T04:02:17;17.20;;;3.78;;
52512;SDS011;38422;53.172;6.974;2023-02-01T04:04:43;16.55;;;3.20;;
52512;SDS011;38422;53.172;6.974;2023-02-01T04:07:08;17.08;;;3.40;;
52512;SDS011;38422;53.172;6.974;2023-02-01T04:09:34;18.83;;;3.30;;
52512;SDS011;38422;53.172;6.974;2023-02-01T04:12:00;22.88;;;3.38;;
52512;SDS011;38422;53.172;6.974;2023-02-01T04:14:26;16.48;;;3.40;;
52512;SDS011;38422;53.172;6.974;2023-02-01T04:16:52;18.50;;;3.08;;
52512;SDS011;38422;53.172;6.974;2023-02-01T04:19:18;20.08;;;3.45;;
52512;SDS011;38422;53.172;6.974;2023-02-01T04:21:43;16.85;;;3.08;;
52512;SDS011;38422;53.172;6.974;2023-02-01T04:24:09;14.20;;;2.95;;
52512;SDS011;38422;53.172;6.974;2023-02-01T04:26:35;17.88;;;3.22;;
52512;SDS011;38422;53.172;6.974;2023-02-01T04:29:01;19.80;;;3.50;;
52512;SDS011;38422;53.172;6.974;2023-02-01T04:31:27;16.58;;;3.22;;
52512;SDS011;38422;53.172;6.974;2023-02-01T04:33:53;14.45;;;3.15;;
52512;SDS011;38422;53.172;6.974;2023-02-01T04:36:20;25.20;;;4.00;;
52512;SDS011;38422;53.172;6.974;2023-02-01T04:38:47;19.38;;;3.30;;
52512;SDS011;38422;53.172;6.974;2023-02-01T04:41:16;14.18;;;3.13;;
52512;SDS011;38422;53.172;6.974;2023-02-01T04:43:45;20.40;;;2.95;;
52512;SDS011;38422;53.172;6.974;2023-02-01T04:46:11;23.60;;;4.15;;
52512;SDS011;38422;53.172;6.974;2023-02-01T04:48:37;18.90;;;3.85;;
52512;SDS011;38422;53.172;6.974;2023-02-01T04:51:02;14.55;;;3.20;;
52512;SDS011;38422;53.172;6.974;2023-02-01T04:53:28;17.52;;;3.50;;
52512;SDS011;38422;53.172;6.974;2023-02-01T04:55:54;20.85;;;3.30;;
52512;SDS011;38422;53.172;6.974;2023-02-01T04:58:21;17.60;;;2.90;;
52512;SDS011;38422;53.172;6.974;2023-02-01T05:00:46;10.57;;;2.70;;
52512;SDS011;38422;53.172;6.974;2023-02-01T05:03:12;16.38;;;2.95;;
52512;SDS011;38422;53.172;6.974;2023-02-01T05:05:38;16.45;;;3.35;;
52512;SDS011;38422;53.172;6.974;2023-02-01T05:08:04;15.45;;;2.92;;
52512;SDS011;38422;53.172;6.974;2023-02-01T05:10:30;20.88;;;3.40;;
52512;SDS011;38422;53.172;6.974;2023-02-01T05:12:55;18.48;;;3.28;;
52512;SDS011;38422;53.172;6.974;2023-02-01T05:15:39;12.38;;;2.70;;
52512;SDS011;38422;53.172;6.974;2023-02-01T05:18:05;15.73;;;2.97;;
52512;SDS011;38422;53.172;6.974;2023-02-01T05:20:30;14.20;;;2.65;;
52512;SDS011;38422;53.172;6.974;2023-02-01T05:22:56;19.55;;;3.08;;
52512;SDS011;38422;53.172;6.974;2023-02-01T05:25:22;20.23;;;3.10;;
52512;SDS011;38422;53.172;6.974;2023-02-01T05:27:47;15.80;;;2.55;;
52512;SDS011;38422;53.172;6.974;2023-02-01T05:30:13;14.82;;;3.28;;
52512;SDS011;38422;53.172;6.974;2023-02-01T05:32:39;15.30;;;3.13;;
52512;SDS011;38422;53.172;6.974;2023-02-01T05:35:05;18.63;;;3.53;;
52512;SDS011;38422;53.172;6.974;2023-02-01T05:37:31;16.75;;;3.13;;
52512;SDS011;38422;53.172;6.974;2023-02-01T05:39:57;12.48;;;2.63;;
52512;SDS011;38422;53.172;6.974;2023-02-01T05:42:22;15.40;;;3.00;;
52512;SDS011;38422;53.172;6.974;2023-02-01T05:44:48;18.30;;;3.22;;
52512;SDS011;38422;53.172;6.974;2023-02-01T05:47:14;16.48;;;3.33;;
52512;SDS011;38422;53.172;6.974;2023-02-01T05:49:39;14.40;;;2.85;;
52512;SDS011;38422;53.172;6.974;2023-02-01T05:52:05;16.23;;;3.58;;
52512;SDS011;38422;53.172;6.974;2023-02-01T05:54:31;19.88;;;3.40;;
52512;SDS011;38422;53.172;6.974;2023-02-01T05:56:57;17.15;;;3.38;;
52512;SDS011;38422;53.172;6.974;2023-02-01T05:59:23;18.63;;;3.55;;
52512;SDS011;38422;53.172;6.974;2023-02-01T06:01:48;15.85;;;3.10;;
52512;SDS011;38422;53.172;6.974;2023-02-01T06:04:14;13.32;;;2.53;;
52512;SDS011;38422;53.172;6.974;2023-02-01T06:06:40;18.52;;;2.80;;
52512;SDS011;38422;53.172;6.974;2023-02-01T06:09:05;15.95;;;2.75;;
52512;SDS011;38422;53.172;6.974;2023-02-01T06:11:31;14.60;;;3.33;;
52512;SDS011;38422;53.172;6.974;2023-02-01T06:13:57;12.18;;;2.55;;
52512;SDS011;38422;53.172;6.974;2023-02-01T06:16:23;18.00;;;3.15;;
52512;SDS011;38422;53.172;6.974;2023-02-01T06:18:49;15.32;;;2.95;;
52512;SDS011;38422;53.172;6.974;2023-02-01T06:21:14;17.45;;;3.35;;
52512;SDS011;38422;53.172;6.974;2023-02-01T06:23:49;14.07;;;2.72;;
52512;SDS011;38422;53.172;6.974;2023-02-01T06:26:18;17.08;;;3.33;;
52512;SDS011;38422;53.172;6.974;2023-02-01T06:28:44;16.17;;;2.78;;
52512;SDS011;38422;53.172;6.974;2023-02-01T06:31:09;19.80;;;3.47;;
52512;SDS011;38422;53.172;6.974;2023-02-01T06:33:35;16.13;;;3.72;;
52512;SDS011;38422;53.172;6.974;2023-02-01T06:36:03;14.45;;;3.35;;
52512;SDS011;38422;53.172;6.974;2023-02-01T06:38:30;19.40;;;3.05;;
52512;SDS011;38422;53.172;6.974;2023-02-01T06:40:56;20.75;;;3.85;;
52512;SDS011;38422;53.172;6.974;2023-02-01T06:43:23;22.20;;;3.47;;
52512;SDS011;38422;53.172;6.974;2023-02-01T06:45:50;13.05;;;2.72;;
52512;SDS011;38422;53.172;6.974;2023-02-01T06:48:16;14.82;;;3.00;;
52512;SDS011;38422;53.172;6.974;2023-02-01T06:50:42;18.77;;;3.58;;
52512;SDS011;38422;53.172;6.974;2023-02-01T06:53:08;19.00;;;2.92;;
52512;SDS011;38422;53.172;6.974;2023-02-01T06:55:34;19.33;;;3.17;;
52512;SDS011;38422;53.172;6.974;2023-02-01T06:58:00;13.98;;;2.80;;
52512;SDS011;38422;53.172;6.974;2023-02-01T07:00:27;15.03;;;3.00;;
52512;SDS011;38422;53.172;6.974;2023-02-01T07:02:53;18.48;;;2.83;;
52512;SDS011;38422;53.172;6.974;2023-02-01T07:05:20;16.13;;;3.15;;
52512;SDS011;38422;53.172;6.974;2023-02-01T07:07:46;16.17;;;3.17;;
52512;SDS011;38422;53.172;6.974;2023-02-01T07:10:11;16.83;;;2.90;;
52512;SDS011;38422;53.172;6.974;2023-02-01T07:12:37;19.98;;;3.15;;
52512;SDS011;38422;53.172;6.974;2023-02-01T07:15:03;16.85;;;2.90;;
52512;SDS011;38422;53.172;6.974;2023-02-01T07:17:29;15.32;;;3.17;;
52512;SDS011;38422;53.172;6.974;2023-02-01T07:19:55;21.80;;;3.15;;
52512;SDS011;38422;53.172;6.974;2023-02-01T07:22:23;16.65;;;3.22;;
52512;SDS011;38422;53.172;6.974;2023-02-01T07:24:49;18.27;;;3.17;;
52512;SDS011;38422;53.172;6.974;2023-02-01T07:27:15;14.20;;;2.75;;
52512;SDS011;38422;53.172;6.974;2023-02-01T07:29:40;18.08;;;3.40;;
52512;SDS011;38422;53.172;6.974;2023-02-01T07:32:06;14.88;;;2.80;;
52512;SDS011;38422;53.172;6.974;2023-02-01T07:34:32;15.00;;;3.17;;
52512;SDS011;38422;53.172;6.974;2023-02-01T07:36:58;13.80;;;2.55;;
52512;SDS011;38422;53.172;6.974;2023-02-01T07:39:24;15.23;;;3.30;;
52512;SDS011;38422;53.172;6.974;2023-02-01T07:41:49;14.02;;;3.17;;
52512;SDS011;38422;53.172;6.974;2023-02-01T07:44:15;14.68;;;3.03;;
52512;SDS011;38422;53.172;6.974;2023-02-01T07:46:44;13.88;;;2.70;;
52512;SDS011;38422;53.172;6.974;2023-02-01T07:49:09;15.18;;;2.83;;
52512;SDS011;38422;53.172;6.974;2023-02-01T07:51:35;17.33;;;3.20;;
52512;SDS011;38422;53.172;6.974;2023-02-01T07:54:01;18.05;;;3.25;;
52512;SDS011;38422;53.172;6.974;2023-02-01T07:56:26;19.88;;;3.00;;
52512;SDS011;38422;53.172;6.974;2023-02-01T07:58:53;18.05;;;3.40;;
52512;SDS011;38422;53.172;6.974;2023-02-01T08:01:22;15.90;;;2.70;;
52512;SDS011;38422;53.172;6.974;2023-02-01T08:03:59;19.23;;;3.35;;
52512;SDS011;38422;53.172;6.974;2023-02-01T08:06:26;15.50;;;3.42;;
52512;SDS011;38422;53.172;6.974;2023-02-01T08:11:20;13.80;;;2.60;;
52512;SDS011;38422;53.172;6.974;2023-02-01T08:13:47;15.20;;;2.80;;
52512;SDS011;38422;53.172;6.974;2023-02-01T08:16:14;20.77;;;3.53;;
52512;SDS011;38422;53.172;6.974;2023-02-01T08:18:40;16.13;;;3.28;;
52512;SDS011;38422;53.172;6.974;2023-02-01T08:21:14;18.70;;;3.00;;
52512;SDS011;38422;53.172;6.974;2023-02-01T08:24:04;18.90;;;3.10;;
52512;SDS011;38422;53.172;6.974;2023-02-01T08:26:31;16.25;;;3.47;;
52512;SDS011;38422;53.172;6.974;2023-02-01T08:28:58;17.98;;;3.42;;
52512;SDS011;38422;53.172;6.974;2023-02-01T08:31:26;16.27;;;3.13;;
52512;SDS011;38422;53.172;6.974;2023-02-01T08:33:54;16.63;;;2.90;;
52512;SDS011;38422;53.172;6.974;2023-02-01T08:36:23;18.27;;;3.00;;
52512;SDS011;38422;53.172;6.974;2023-02-01T08:41:17;16.38;;;3.03;;
52512;SDS011;38422;53.172;6.974;2023-02-01T08:43:44;19.98;;;3.13;;
52512;SDS011;38422;53.172;6.974;2023-02-01T08:46:11;17.35;;;2.88;;
52512;SDS011;38422;53.172;6.974;2023-02-01T08:48:37;14.85;;;2.90;;
52512;SDS011;38422;53.172;6.974;2023-02-01T08:51:04;16.25;;;2.80;;
52512;SDS011;38422;53.172;6.974;2023-02-01T08:53:34;15.88;;;3.42;;
52512;SDS011;38422;53.172;6.974;2023-02-01T08:56:01;14.13;;;3.30;;
52512;SDS011;38422;53.172;6.974;2023-02-01T08:58:27;11.38;;;2.58;;
52512;SDS011;38422;53.172;6.974;2023-02-01T09:00:53;16.90;;;3.50;;
52512;SDS011;38422;53.172;6.974;2023-02-01T09:03:19;16.02;;;2.80;;
52512;SDS011;38422;53.172;6.974;2023-02-01T09:05:44;18.23;;;3.25;;
52512;SDS011;38422;53.172;6.974;2023-02-01T09:08:10;15.73;;;2.78;;
52512;SDS011;38422;53.172;6.974;2023-02-01T09:10:40;16.25;;;3.05;;
52512;SDS011;38422;53.172;6.974;2023-02-01T09:13:07;18.73;;;2.88;;
52512;SDS011;38422;53.172;6.974;2023-02-01T09:15:33;17.67;;;3.43;;
52512;SDS011;38422;53.172;6.974;2023-02-01T09:18:00;15.75;;;3.00;;
52512;SDS011;38422;53.172;6.974;2023-02-01T09:20:25;14.70;;;2.78;;
52512;SDS011;38422;53.172;6.974;2023-02-01T09:22:51;12.88;;;2.20;;
52512;SDS011;38422;53.172;6.974;2023-02-01T09:25:17;15.27;;;2.63;;
52512;SDS011;38422;53.172;6.974;2023-02-01T09:27:43;13.90;;;3.20;;
52512;SDS011;38422;53.172;6.974;2023-02-01T09:30:09;18.70;;;2.80;;
52512;SDS011;38422;53.172;6.974;2023-02-01T09:32:35;14.93;;;3.15;;
52512;SDS011;38422;53.172;6.974;2023-02-01T09:35:01;12.25;;;2.42;;
52512;SDS011;38422;53.172;6.974;2023-02-01T09:37:27;17.23;;;2.83;;
52512;SDS011;38422;53.172;6.974;2023-02-01T09:39:53;17.17;;;2.83;;
52512;SDS011;38422;53.172;6.974;2023-02-01T09:47:35;13.50;;;2.70;;
52512;SDS011;38422;53.172;6.974;2023-02-01T09:50:11;17.02;;;2.75;;
52512;SDS011;38422;53.172;6.974;2023-02-01T09:55:39;13.25;;;2.13;;
52512;SDS011;38422;53.172;6.974;2023-02-01T10:00:52;13.10;;;2.38;;
52512;SDS011;38422;53.172;6.974;2023-02-01T10:03:19;17.40;;;2.45;;
52512;SDS011;38422;53.172;6.974;2023-02-01T10:08:54;14.50;;;2.40;;
52512;SDS011;38422;53.172;6.974;2023-02-01T10:11:29;15.32;;;3.08;;
52512;SDS011;38422;53.172;6.974;2023-02-01T10:21:54;16.67;;;3.10;;
52512;SDS011;38422;53.172;6.974;2023-02-01T10:27:34;12.27;;;2.40;;
52512;SDS011;38422;53.172;6.974;2023-02-01T10:32:57;15.43;;;2.97;;
52512;SDS011;38422;53.172;6.974;2023-02-01T10:35:37;15.70;;;2.88;;
52512;SDS011;38422;53.172;6.974;2023-02-01T10:38:04;14.70;;;2.72;;
52512;SDS011;38422;53.172;6.974;2023-02-01T10:40:41;15.70;;;2.88;;
52512;SDS011;38422;53.172;6.974;2023-02-01T10:43:07;15.02;;;2.75;;
52512;SDS011;38422;53.172;6.974;2023-02-01T10:45:42;11.45;;;2.58;;
52512;SDS011;38422;53.172;6.974;2023-02-01T10:48:08;15.20;;;2.92;;
52512;SDS011;38422;53.172;6.974;2023-02-01T10:53:26;16.75;;;2.85;;
52512;SDS011;38422;53.172;6.974;2023-02-01T10:56:10;12.27;;;2.17;;
52512;SDS011;38422;53.172;6.974;2023-02-01T10:58:44;14.77;;;3.03;;
52512;SDS011;38422;53.172;6.974;2023-02-01T11:01:16;11.20;;;2.10;;
52512;SDS011;38422;53.172;6.974;2023-02-01T11:03:53;18.02;;;2.78;;
52512;SDS011;38422;53.172;6.974;2023-02-01T11:07:04;12.30;;;2.38;;
52512;SDS011;38422;53.172;6.974;2023-02-01T11:09:16;16.15;;;2.35;;
52512;SDS011;38422;53.172;6.974;2023-02-01T11:14:15;16.75;;;2.38;;
52512;SDS011;38422;53.172;6.974;2023-02-01T11:16:49;13.55;;;2.67;;
52512;SDS011;38422;53.172;6.974;2023-02-01T11:19:22;15.05;;;2.05;;
52512;SDS011;38422;53.172;6.974;2023-02-01T11:21:49;11.98;;;2.35;;
52512;SDS011;38422;53.172;6.974;2023-02-01T11:24:26;10.82;;;1.95;;
52512;SDS011;38422;53.172;6.974;2023-02-01T11:27:03;14.02;;;2.67;;
52512;SDS011;38422;53.172;6.974;2023-02-01T11:29:38;11.80;;;2.35;;
52512;SDS011;38422;53.172;6.974;2023-02-01T11:32:07;6.88;;;1.45;;
52512;SDS011;38422;53.172;6.974;2023-02-01T11:34:38;2.28;;;0.30;;
52512;SDS011;38422;53.172;6.974;2023-02-01T11:37:15;1.10;;;0.22;;
52512;SDS011;38422;53.172;6.974;2023-02-01T11:39:55;1.45;;;0.30;;
52512;SDS011;38422;53.172;6.974;2023-02-01T11:42:26;2.53;;;0.45;;
52512;SDS011;38422;53.172;6.974;2023-02-01T11:47:40;3.22;;;0.35;;
52512;SDS011;38422;53.172;6.974;2023-02-01T11:50:17;2.42;;;0.40;;
52512;SDS011;38422;53.172;6.974;2023-02-01T11:52:54;1.75;;;0.30;;
52512;SDS011;38422;53.172;6.974;2023-02-01T11:58:20;1.58;;;0.50;;
52512;SDS011;38422;53.172;6.974;2023-02-01T12:01:30;3.05;;;0.40;;
52512;SDS011;38422;53.172;6.974;2023-02-01T12:07:01;3.13;;;0.40;;
52512;SDS011;38422;53.172;6.974;2023-02-01T12:26:12;7.82;;;1.73;;
52512;SDS011;38422;53.172;6.974;2023-02-01T12:42:16;8.55;;;1.38;;
52512;SDS011;38422;53.172;6.974;2023-02-01T12:50:45;9.35;;;1.40;;
52512;SDS011;38422;53.172;6.974;2023-02-01T12:53:17;9.38;;;1.48;;
52512;SDS011;38422;53.172;6.974;2023-02-01T12:55:52;8.52;;;1.42;;
52512;SDS011;38422;53.172;6.974;2023-02-01T12:58:24;8.38;;;1.50;;
52512;SDS011;38422;53.172;6.974;2023-02-01T13:01:00;13.55;;;2.00;;
52512;SDS011;38422;53.172;6.974;2023-02-01T13:03:38;16.02;;;2.63;;
52512;SDS011;38422;53.172;6.974;2023-02-01T13:11:54;15.43;;;2.75;;
52512;SDS011;38422;53.172;6.974;2023-02-01T13:17:10;20.63;;;3.60;;
52512;SDS011;38422;53.172;6.974;2023-02-01T13:22:57;20.85;;;3.20;;
52512;SDS011;38422;53.172;6.974;2023-02-01T13:25:12;24.02;;;3.35;;
52512;SDS011;38422;53.172;6.974;2023-02-01T13:27:45;18.90;;;3.17;;
52512;SDS011;38422;53.172;6.974;2023-02-01T13:30:20;23.40;;;3.63;;
52512;SDS011;38422;53.172;6.974;2023-02-01T13:33:15;16.73;;;3.35;;
52512;SDS011;38422;53.172;6.974;2023-02-01T13:35:52;20.23;;;3.45;;
52512;SDS011;38422;53.172;6.974;2023-02-01T13:43:53;19.50;;;3.40;;
52512;SDS011;38422;53.172;6.974;2023-02-01T13:46:22;14.35;;;2.90;;
52512;SDS011;38422;53.172;6.974;2023-02-01T13:48:53;18.63;;;3.20;;
52512;SDS011;38422;53.172;6.974;2023-02-01T13:51:55;15.77;;;3.10;;
52512;SDS011;38422;53.172;6.974;2023-02-01T13:54:26;14.50;;;2.72;;
52512;SDS011;38422;53.172;6.974;2023-02-01T13:56:52;19.45;;;3.67;;
52512;SDS011;38422;53.172;6.974;2023-02-01T14:05:04;15.07;;;2.55;;
52512;SDS011;38422;53.172;6.974;2023-02-01T14:07:33;21.25;;;2.55;;
52512;SDS011;38422;53.172;6.974;2023-02-01T14:10:42;13.02;;;2.67;;
52512;SDS011;38422;53.172;6.974;2023-02-01T14:21:20;18.42;;;3.08;;
52512;SDS011;38422;53.172;6.974;2023-02-01T14:26:19;20.02;;;3.38;;
52512;SDS011;38422;53.172;6.974;2023-02-01T14:31:52;10.88;;;2.60;;
52512;SDS011;38422;53.172;6.974;2023-02-01T14:42:38;13.70;;;2.70;;
52512;SDS011;38422;53.172;6.974;2023-02-01T14:47:55;17.92;;;3.08;;
52512;SDS011;38422;53.172;6.974;2023-02-01T14:50:41;19.02;;;2.85;;
52512;SDS011;38422;53.172;6.974;2023-02-01T14:55:54;19.05;;;2.90;;
52512;SDS011;38422;53.172;6.974;2023-02-01T15:01:22;17.65;;;3.20;;
52512;SDS011;38422;53.172;6.974;2023-02-01T15:03:56;17.20;;;3.10;;
52512;SDS011;38422;53.172;6.974;2023-02-01T15:06:38;19.30;;;3.45;;
52512;SDS011;38422;53.172;6.974;2023-02-01T15:14:33;16.67;;;2.70;;
52512;SDS011;38422;53.172;6.974;2023-02-01T15:17:00;15.05;;;2.88;;
52512;SDS011;38422;53.172;6.974;2023-02-01T15:19:27;15.60;;;2.67;;
52512;SDS011;38422;53.172;6.974;2023-02-01T15:21:55;17.33;;;2.90;;
52512;SDS011;38422;53.172;6.974;2023-02-01T15:26:49;19.60;;;3.05;;
52512;SDS011;38422;53.172;6.974;2023-02-01T15:29:16;16.63;;;3.42;;
52512;SDS011;38422;53.172;6.974;2023-02-01T15:31:47;14.00;;;2.33;;
52512;SDS011;38422;53.172;6.974;2023-02-01T15:34:15;15.43;;;2.78;;
52512;SDS011;38422;53.172;6.974;2023-02-01T15:36:41;16.90;;;3.25;;
52512;SDS011;38422;53.172;6.974;2023-02-01T15:39:13;17.08;;;3.15;;
52512;SDS011;38422;53.172;6.974;2023-02-01T15:41:46;14.57;;;2.90;;
52512;SDS011;38422;53.172;6.974;2023-02-01T15:46:45;24.00;;;2.97;;
52512;SDS011;38422;53.172;6.974;2023-02-01T15:49:27;18.58;;;3.20;;
52512;SDS011;38422;53.172;6.974;2023-02-01T15:52:01;20.58;;;3.10;;
52512;SDS011;38422;53.172;6.974;2023-02-01T15:54:29;14.93;;;3.10;;
52512;SDS011;38422;53.172;6.974;2023-02-01T15:57:07;15.13;;;2.85;;
52512;SDS011;38422;53.172;6.974;2023-02-01T15:59:37;18.25;;;3.40;;
52512;SDS011;38422;53.172;6.974;2023-02-01T16:02:43;16.55;;;3.13;;
52512;SDS011;38422;53.172;6.974;2023-02-01T16:05:04;21.92;;;3.10;;
52512;SDS011;38422;53.172;6.974;2023-02-01T16:07:55;18.70;;;2.80;;
52512;SDS011;38422;53.172;6.974;2023-02-01T16:10:29;18.20;;;3.10;;
52512;SDS011;38422;53.172;6.974;2023-02-01T16:12:55;15.83;;;3.30;;
52512;SDS011;38422;53.172;6.974;2023-02-01T16:15:25;15.13;;;2.88;;
52512;SDS011;38422;53.172;6.974;2023-02-01T16:17:54;17.23;;;3.22;;
52512;SDS011;38422;53.172;6.974;2023-02-01T16:20:20;16.00;;;3.15;;
52512;SDS011;38422;53.172;6.974;2023-02-01T16:22:46;22.63;;;3.10;;
52512;SDS011;38422;53.172;6.974;2023-02-01T16:25:11;16.00;;;3.22;;
52512;SDS011;38422;53.172;6.974;2023-02-01T16:27:37;18.63;;;3.03;;
52512;SDS011;38422;53.172;6.974;2023-02-01T16:30:03;18.00;;;2.80;;
52512;SDS011;38422;53.172;6.974;2023-02-01T16:32:29;15.38;;;2.92;;
52512;SDS011;38422;53.172;6.974;2023-02-01T16:34:56;14.55;;;2.70;;
52512;SDS011;38422;53.172;6.974;2023-02-01T16:37:22;14.20;;;2.30;;
52512;SDS011;38422;53.172;6.974;2023-02-01T16:42:15;17.60;;;2.88;;
52512;SDS011;38422;53.172;6.974;2023-02-01T16:44:42;17.52;;;2.70;;
52512;SDS011;38422;53.172;6.974;2023-02-01T16:47:26;19.35;;;3.50;;
52512;SDS011;38422;53.172;6.974;2023-02-01T16:49:52;12.30;;;2.85;;
52512;SDS011;38422;53.172;6.974;2023-02-01T16:52:18;16.52;;;2.45;;
52512;SDS011;38422;53.172;6.974;2023-02-01T16:54:46;17.02;;;3.15;;
52512;SDS011;38422;53.172;6.974;2023-02-01T16:57:13;13.70;;;2.70;;
52512;SDS011;38422;53.172;6.974;2023-02-01T16:59:40;16.48;;;3.85;;
52512;SDS011;38422;53.172;6.974;2023-02-01T17:02:11;15.95;;;3.38;;
52512;SDS011;38422;53.172;6.974;2023-02-01T17:04:42;16.00;;;2.97;;
52512;SDS011;38422;53.172;6.974;2023-02-01T17:07:17;16.13;;;2.78;;
52512;SDS011;38422;53.172;6.974;2023-02-01T17:09:44;13.18;;;2.90;;
52512;SDS011;38422;53.172;6.974;2023-02-01T17:12:21;16.33;;;3.25;;
52512;SDS011;38422;53.172;6.974;2023-02-01T17:17:15;16.83;;;2.58;;
52512;SDS011;38422;53.172;6.974;2023-02-01T17:19:41;16.95;;;2.72;;
52512;SDS011;38422;53.172;6.974;2023-02-01T17:22:09;18.00;;;2.95;;
52512;SDS011;38422;53.172;6.974;2023-02-01T17:24:35;16.17;;;2.88;;
52512;SDS011;38422;53.172;6.974;2023-02-01T17:27:01;17.08;;;2.83;;
52512;SDS011;38422;53.172;6.974;2023-02-01T17:29:28;14.18;;;3.80;;
52512;SDS011;38422;53.172;6.974;2023-02-01T17:31:54;14.50;;;2.90;;
52512;SDS011;38422;53.172;6.974;2023-02-01T17:34:21;17.95;;;2.92;;
52512;SDS011;38422;53.172;6.974;2023-02-01T17:36:47;16.33;;;2.72;;
52512;SDS011;38422;53.172;6.974;2023-02-01T17:39:15;17.92;;;2.83;;
52512;SDS011;38422;53.172;6.974;2023-02-01T17:42:00;15.73;;;2.78;;
52512;SDS011;38422;53.172;6.974;2023-02-01T17:44:26;14.65;;;2.67;;
52512;SDS011;38422;53.172;6.974;2023-02-01T17:46:52;23.92;;;3.58;;
52512;SDS011;38422;53.172;6.974;2023-02-01T17:49:19;18.70;;;3.05;;
52512;SDS011;38422;53.172;6.974;2023-02-01T17:51:45;19.02;;;3.00;;
52512;SDS011;38422;53.172;6.974;2023-02-01T17:54:11;19.80;;;3.33;;
52512;SDS011;38422;53.172;6.974;2023-02-01T17:56:38;17.05;;;3.08;;